createdAt,value
2019-02-12T00:01:00.289Z,70.97
2019-02-12T00:01:37.361Z,70.96
2019-02-12T00:02:15.959Z,70.97
2019-02-12T00:02:52.279Z,70.99
2019-02-12T00:03:28.395Z,70.97
2019-02-12T00:04:04.605Z,70.97
2019-02-12T00:04:40.661Z,70.98
2019-02-12T00:05:16.845Z,70.98
2019-02-12T00:05:53.059Z,71.00
2019-02-12T00:06:29.241Z,71.02
2019-02-12T00:07:05.393Z,71.00
2019-02-12T00:07:41.474Z,71.00
2019-02-12T00:08:17.614Z,70.99
2019-02-12T00:08:53.923Z,70.98
2019-02-12T00:09:30.127Z,70.99
2019-02-12T00:10:06.607Z,70.97
2019-02-12T00:10:42.875Z,71.00
2019-02-12T00:11:19.042Z,71.00
2019-02-12T00:11:55.344Z,71.05
2019-02-12T00:12:31.400Z,71.08
2019-02-12T00:13:07.507Z,71.08
2019-02-12T00:13:43.693Z,71.08
2019-02-12T00:14:19.826Z,71.09
2019-02-12T00:14:55.941Z,71.16
2019-02-12T00:15:32.145Z,71.16
2019-02-12T00:16:08.288Z,71.20
2019-02-12T00:16:44.521Z,71.19
2019-02-12T00:17:20.664Z,71.23
2019-02-12T00:17:56.980Z,71.26
2019-02-12T00:18:33.087Z,71.27
2019-02-12T00:19:09.241Z,71.26
2019-02-12T00:19:45.556Z,71.28
2019-02-12T00:20:21.859Z,71.36
2019-02-12T00:20:57.832Z,71.37
2019-02-12T00:21:33.968Z,71.39
2019-02-12T00:22:10.282Z,71.43
2019-02-12T00:22:46.608Z,71.43
2019-02-12T00:23:22.818Z,71.38
2019-02-12T00:23:59.523Z,71.39
2019-02-12T00:24:35.663Z,71.43
2019-02-12T00:25:11.846Z,71.52
2019-02-12T00:25:48.044Z,71.57
2019-02-12T00:26:24.301Z,71.64
2019-02-12T00:27:00.511Z,71.67
2019-02-12T00:27:36.623Z,71.73
2019-02-12T00:28:12.850Z,71.79
2019-02-12T00:28:48.973Z,71.84
2019-02-12T00:29:25.197Z,71.89
2019-02-12T00:30:01.204Z,71.92
2019-02-12T00:30:37.503Z,71.98
2019-02-12T00:31:13.543Z,71.96
2019-02-12T00:31:49.733Z,71.96
2019-02-12T00:32:25.988Z,71.99
2019-02-12T00:33:02.258Z,71.98
2019-02-12T00:33:38.576Z,71.96
2019-02-12T00:34:14.812Z,71.94
2019-02-12T00:34:51.081Z,71.86
2019-02-12T00:35:27.400Z,71.77
2019-02-12T00:36:03.580Z,71.71
2019-02-12T00:36:39.805Z,71.62
2019-02-12T00:37:16.101Z,71.55
2019-02-12T00:37:52.366Z,71.46
2019-02-12T00:38:28.555Z,71.43
2019-02-12T00:39:05.048Z,71.38
2019-02-12T00:39:41.099Z,71.31
2019-02-12T00:40:17.380Z,71.26
2019-02-12T00:40:53.419Z,71.22
2019-02-12T00:41:29.689Z,71.18
2019-02-12T00:42:05.964Z,71.17
2019-02-12T00:42:42.255Z,71.16
2019-02-12T00:43:18.481Z,71.13
2019-02-12T00:43:54.686Z,71.08
2019-02-12T00:44:30.763Z,71.05
2019-02-12T00:45:06.993Z,71.02
2019-02-12T00:45:43.011Z,70.96
2019-02-12T00:46:19.136Z,70.90
2019-02-12T00:46:55.340Z,70.81
2019-02-12T00:47:31.559Z,70.88
2019-02-12T00:48:07.839Z,70.82
2019-02-12T00:48:44.360Z,70.76
2019-02-12T00:49:20.437Z,70.66
2019-02-12T00:49:56.434Z,70.63
2019-02-12T00:50:32.563Z,70.61
2019-02-12T00:51:17.331Z,70.56
2019-02-12T00:51:46.631Z,70.50
2019-02-12T00:52:22.943Z,70.48
2019-02-12T00:52:59.270Z,70.42
2019-02-12T00:53:35.600Z,70.32
2019-02-12T00:54:11.951Z,70.25
2019-02-12T00:54:48.229Z,70.19
2019-02-12T00:55:24.360Z,70.16
2019-02-12T00:56:00.447Z,70.13
2019-02-12T00:56:36.549Z,70.09
2019-02-12T00:57:12.745Z,70.07
2019-02-12T00:57:48.753Z,70.04
2019-02-12T00:58:25.042Z,70.07
2019-02-12T00:59:01.049Z,70.01
2019-02-12T00:59:37.173Z,70.00
2019-02-12T01:00:14.665Z,69.96
2019-02-12T01:00:50.909Z,69.93
2019-02-12T01:01:27.085Z,69.88
2019-02-12T01:02:03.197Z,69.84
2019-02-12T01:02:39.493Z,69.79
2019-02-12T01:03:15.759Z,69.77
2019-02-12T01:03:51.953Z,69.71
2019-02-12T01:04:28.050Z,69.70
2019-02-12T01:05:04.469Z,69.59
2019-02-12T01:05:40.779Z,69.47
2019-02-12T01:06:17.021Z,69.30
2019-02-12T01:06:53.300Z,69.19
2019-02-12T01:07:29.480Z,69.10
2019-02-12T01:08:05.685Z,69.04
2019-02-12T01:08:42.024Z,69.00
2019-02-12T01:09:18.153Z,68.93
2019-02-12T01:09:54.300Z,68.88
2019-02-12T01:10:30.446Z,68.84
2019-02-12T01:11:06.601Z,68.83
2019-02-12T01:11:42.772Z,68.81
2019-02-12T01:12:19.036Z,68.78
2019-02-12T01:12:55.356Z,68.74
2019-02-12T01:13:31.723Z,68.68
2019-02-12T01:14:07.867Z,68.60
2019-02-12T01:14:43.963Z,68.56
2019-02-12T01:15:20.237Z,68.50
2019-02-12T01:15:56.495Z,68.48
2019-02-12T01:16:32.675Z,68.47
2019-02-12T01:17:08.890Z,68.41
2019-02-12T01:17:45.056Z,68.28
2019-02-12T01:18:21.217Z,68.13
2019-02-12T01:18:57.461Z,68.03
2019-02-12T01:19:33.687Z,67.91
2019-02-12T01:20:11.885Z,67.80
2019-02-12T01:20:48.058Z,67.65
2019-02-12T01:21:26.153Z,67.46
2019-02-12T01:22:02.256Z,67.33
2019-02-12T01:22:38.475Z,67.17
2019-02-12T01:23:14.624Z,67.12
2019-02-12T01:23:50.773Z,67.08
2019-02-12T01:24:26.922Z,67.03
2019-02-12T01:25:03.096Z,66.91
2019-02-12T01:25:39.274Z,66.74
2019-02-12T01:26:15.471Z,66.32
2019-02-12T01:26:51.675Z,66.23
2019-02-12T01:27:27.819Z,66.06
2019-02-12T01:28:03.922Z,65.46
2019-02-12T01:28:40.045Z,64.87
2019-02-12T01:29:16.149Z,64.44
2019-02-12T01:29:52.491Z,64.00
2019-02-12T01:30:28.676Z,63.42
2019-02-12T01:31:04.751Z,62.87
2019-02-12T01:31:40.892Z,62.33
2019-02-12T01:32:17.071Z,61.56
2019-02-12T01:32:53.197Z,61.18
2019-02-12T01:33:29.389Z,60.65
2019-02-12T01:34:05.538Z,60.65
2019-02-12T01:34:41.704Z,60.32
2019-02-12T01:35:17.811Z,59.32
2019-02-12T01:35:54.134Z,58.89
2019-02-12T01:36:30.438Z,58.81
2019-02-12T01:37:06.528Z,58.81
2019-02-12T01:37:42.702Z,58.40
2019-02-12T01:38:18.927Z,57.94
2019-02-12T01:38:55.053Z,57.94
2019-02-12T01:39:31.106Z,57.12
2019-02-12T01:40:07.941Z,57.12
2019-02-12T01:40:45.795Z,57.13
2019-02-12T01:41:21.942Z,56.45
2019-02-12T01:41:58.090Z,55.91
2019-02-12T01:42:34.417Z,55.42
2019-02-12T01:43:10.624Z,55.31
2019-02-12T01:43:46.906Z,55.17
2019-02-12T01:44:23.190Z,54.62
2019-02-12T01:44:59.463Z,54.20
2019-02-12T01:45:35.539Z,53.59
2019-02-12T01:46:11.769Z,52.46
2019-02-12T01:46:47.998Z,52.23
2019-02-12T01:47:24.229Z,52.11
2019-02-12T01:48:00.355Z,51.82
2019-02-12T01:48:36.554Z,51.61
2019-02-12T01:49:12.761Z,51.37
2019-02-12T01:49:49.031Z,51.14
2019-02-12T01:50:25.379Z,50.80
2019-02-12T01:51:01.628Z,50.51
2019-02-12T01:51:37.666Z,49.76
2019-02-12T01:52:13.795Z,49.67
2019-02-12T01:52:49.975Z,49.38
2019-02-12T01:53:26.211Z,48.82
2019-02-12T01:54:03.137Z,48.34
2019-02-12T01:54:39.777Z,48.16
2019-02-12T01:55:16.140Z,48.14
2019-02-12T01:55:52.477Z,48.21
2019-02-12T01:56:28.790Z,48.26
2019-02-12T01:57:05.130Z,48.30
2019-02-12T01:57:41.349Z,48.09
2019-02-12T01:58:17.746Z,48.00
2019-02-12T01:58:53.960Z,47.94
2019-02-12T01:59:30.481Z,47.91
2019-02-12T02:00:07.498Z,47.88
2019-02-12T02:00:43.916Z,47.82
2019-02-12T02:01:20.193Z,47.75
2019-02-12T02:01:56.741Z,47.76
2019-02-12T02:02:32.977Z,48.07
2019-02-12T02:03:09.252Z,47.85
2019-02-12T02:03:45.352Z,47.72
2019-02-12T02:04:21.722Z,47.49
2019-02-12T02:04:57.989Z,47.44
2019-02-12T02:05:34.241Z,47.41
2019-02-12T02:06:10.277Z,47.33
2019-02-12T02:06:46.322Z,47.27
2019-02-12T02:07:22.427Z,47.21
2019-02-12T02:07:58.543Z,47.10
2019-02-12T02:08:34.615Z,46.91
2019-02-12T02:09:10.906Z,46.72
2019-02-12T02:09:47.168Z,46.59
2019-02-12T02:10:23.221Z,46.55
2019-02-12T02:10:59.308Z,46.32
2019-02-12T02:11:35.437Z,46.17
2019-02-12T02:12:11.825Z,46.20
2019-02-12T02:12:48.119Z,46.20
2019-02-12T02:13:24.204Z,46.17
2019-02-12T02:14:00.261Z,46.04
2019-02-12T02:14:36.554Z,45.89
2019-02-12T02:15:13.203Z,45.58
2019-02-12T02:15:49.418Z,45.50
2019-02-12T02:16:25.563Z,45.32
2019-02-12T02:17:01.765Z,45.24
2019-02-12T02:17:37.961Z,45.20
2019-02-12T02:18:14.220Z,44.92
2019-02-12T02:18:50.305Z,44.90
2019-02-12T02:19:26.459Z,44.95
2019-02-12T02:20:02.599Z,44.80
2019-02-12T02:20:38.844Z,44.56
2019-02-12T02:21:15.103Z,44.21
2019-02-12T02:21:51.155Z,44.24
2019-02-12T02:22:27.361Z,44.42
2019-02-12T02:23:03.601Z,44.64
2019-02-12T02:23:39.705Z,44.72
2019-02-12T02:24:15.963Z,44.52
2019-02-12T02:24:52.148Z,44.11
2019-02-12T02:25:28.241Z,43.81
2019-02-12T02:26:04.351Z,43.90
2019-02-12T02:26:40.495Z,43.96
2019-02-12T02:27:16.757Z,43.94
2019-02-12T02:27:52.935Z,44.09
2019-02-12T02:28:29.184Z,44.19
2019-02-12T02:29:05.323Z,44.28
2019-02-12T02:29:41.527Z,44.44
2019-02-12T02:30:18.108Z,44.49
2019-02-12T02:30:54.181Z,44.46
2019-02-12T02:31:30.450Z,44.37
2019-02-12T02:32:06.686Z,44.22
2019-02-12T02:32:43.031Z,44.08
2019-02-12T02:33:19.257Z,43.86
2019-02-12T02:33:56.620Z,43.79
2019-02-12T02:34:32.738Z,43.61
2019-02-12T02:35:09.112Z,43.31
2019-02-12T02:35:45.406Z,43.10
2019-02-12T02:36:21.528Z,43.00
2019-02-12T02:36:57.653Z,42.93
2019-02-12T02:37:33.740Z,43.04
2019-02-12T02:38:09.988Z,43.15
2019-02-12T02:38:46.122Z,43.17
2019-02-12T02:39:22.191Z,43.18
2019-02-12T02:39:58.377Z,43.28
2019-02-12T02:40:34.639Z,43.38
2019-02-12T02:41:10.718Z,43.39
2019-02-12T02:41:46.901Z,43.40
2019-02-12T02:42:22.945Z,43.32
2019-02-12T02:42:59.427Z,43.25
2019-02-12T02:43:35.646Z,43.16
2019-02-12T02:44:11.878Z,43.18
2019-02-12T02:44:48.087Z,43.10
2019-02-12T02:45:24.321Z,43.09
2019-02-12T02:46:00.473Z,43.07
2019-02-12T02:46:36.710Z,43.05
2019-02-12T02:47:12.848Z,43.01
2019-02-12T02:47:49.141Z,42.94
2019-02-12T02:48:25.402Z,42.93
2019-02-12T02:49:01.466Z,42.90
2019-02-12T02:49:37.866Z,42.86
2019-02-12T02:50:14.183Z,42.71
2019-02-12T02:50:50.268Z,42.55
2019-02-12T02:51:26.469Z,42.35
2019-02-12T02:52:02.667Z,42.18
2019-02-12T02:52:38.882Z,42.17
2019-02-12T02:53:15.111Z,42.15
2019-02-12T02:53:51.227Z,42.22
2019-02-12T02:54:27.280Z,42.46
2019-02-12T02:55:03.461Z,42.26
2019-02-12T02:55:39.752Z,42.14
2019-02-12T02:56:15.964Z,42.05
2019-02-12T02:56:52.099Z,41.74
2019-02-12T02:57:28.248Z,41.49
2019-02-12T02:58:04.375Z,41.66
2019-02-12T02:58:40.514Z,41.43
2019-02-12T02:59:16.749Z,41.29
2019-02-12T02:59:53.024Z,41.09
2019-02-12T03:00:29.270Z,41.13
2019-02-12T03:01:05.453Z,41.33
2019-02-12T03:01:41.640Z,41.53
2019-02-12T03:02:17.782Z,41.30
2019-02-12T03:02:54.015Z,41.22
2019-02-12T03:03:30.283Z,41.14
2019-02-12T03:04:06.494Z,41.06
2019-02-12T03:04:42.793Z,41.13
2019-02-12T03:05:19.107Z,41.13
2019-02-12T03:05:55.274Z,41.07
2019-02-12T03:06:31.408Z,41.07
2019-02-12T03:07:07.439Z,41.10
2019-02-12T03:07:43.495Z,41.00
2019-02-12T03:08:19.609Z,40.83
2019-02-12T03:08:55.668Z,40.51
2019-02-12T03:09:31.796Z,40.26
2019-02-12T03:10:08.252Z,39.89
2019-02-12T03:10:44.386Z,39.57
2019-02-12T03:11:20.625Z,38.91
2019-02-12T03:11:56.758Z,38.75
2019-02-12T03:12:32.894Z,38.34
2019-02-12T03:13:09.157Z,38.25
2019-02-12T03:13:45.340Z,38.23
2019-02-12T03:14:21.615Z,38.29
2019-02-12T03:14:57.678Z,38.37
2019-02-12T03:15:33.850Z,38.52
2019-02-12T03:16:10.011Z,38.50
2019-02-12T03:16:46.185Z,38.39
2019-02-12T03:17:22.344Z,37.98
2019-02-12T03:17:58.515Z,37.67
2019-02-12T03:18:34.816Z,37.65
2019-02-12T03:19:11.096Z,37.63
2019-02-12T03:19:47.259Z,37.55
2019-02-12T03:20:23.496Z,37.20
2019-02-12T03:20:59.662Z,37.03
2019-02-12T03:21:35.905Z,36.43
2019-02-12T03:22:12.046Z,36.46
2019-02-12T03:22:48.139Z,36.51
2019-02-12T03:23:24.285Z,36.37
2019-02-12T03:24:00.410Z,36.13
2019-02-12T03:24:36.703Z,36.18
2019-02-12T03:25:12.969Z,36.31
2019-02-12T03:25:49.170Z,36.30
2019-02-12T03:26:25.543Z,36.04
2019-02-12T03:27:01.663Z,36.01
2019-02-12T03:27:38.018Z,35.84
2019-02-12T03:28:14.302Z,35.91
2019-02-12T03:28:50.375Z,36.05
2019-02-12T03:29:26.586Z,36.15
2019-02-12T03:30:02.699Z,36.15
2019-02-12T03:30:38.872Z,36.38
2019-02-12T03:31:14.979Z,36.24
2019-02-12T03:31:51.013Z,36.51
2019-02-12T03:32:27.187Z,36.57
2019-02-12T03:33:03.383Z,36.55
2019-02-12T03:33:39.707Z,36.54
2019-02-12T03:34:15.732Z,36.51
2019-02-12T03:34:51.991Z,36.50
2019-02-12T03:35:28.194Z,36.34
2019-02-12T03:36:04.433Z,36.31
2019-02-12T03:36:40.644Z,36.38
2019-02-12T03:37:16.958Z,36.38
2019-02-12T03:37:53.074Z,36.57
2019-02-12T03:38:29.207Z,36.67
2019-02-12T03:39:05.961Z,36.81
2019-02-12T03:39:42.117Z,36.83
2019-02-12T03:40:18.386Z,36.74
2019-02-12T03:40:54.554Z,36.18
2019-02-12T03:41:30.591Z,36.13
2019-02-12T03:42:06.780Z,36.17
2019-02-12T03:42:43.025Z,36.11
2019-02-12T03:43:19.319Z,36.03
2019-02-12T03:43:55.784Z,36.03
2019-02-12T03:44:32.072Z,36.23
2019-02-12T03:45:09.022Z,36.40
2019-02-12T03:45:45.149Z,36.47
2019-02-12T03:46:21.304Z,36.44
2019-02-12T03:46:57.547Z,36.35
2019-02-12T03:47:33.657Z,36.24
2019-02-12T03:48:09.964Z,36.14
2019-02-12T03:48:45.974Z,35.76
2019-02-12T03:49:22.171Z,35.49
2019-02-12T03:49:58.421Z,35.20
2019-02-12T03:50:34.738Z,34.82
2019-02-12T03:51:10.899Z,34.33
2019-02-12T03:51:47.152Z,34.07
2019-02-12T03:52:23.370Z,33.50
2019-02-12T03:52:59.572Z,33.36
2019-02-12T03:53:35.907Z,33.26
2019-02-12T03:54:12.038Z,32.95
2019-02-12T03:54:48.338Z,32.98
2019-02-12T03:55:24.645Z,33.08
2019-02-12T03:56:01.052Z,33.19
2019-02-12T03:56:37.177Z,32.94
2019-02-12T03:57:13.403Z,32.74
2019-02-12T03:57:49.588Z,32.91
2019-02-12T03:58:25.713Z,32.94
2019-02-12T03:59:01.885Z,32.85
2019-02-12T03:59:37.977Z,32.68
2019-02-12T04:00:15.604Z,32.68
2019-02-12T04:00:52.105Z,32.40
2019-02-12T04:01:28.171Z,32.17
2019-02-12T04:02:04.302Z,32.22
2019-02-12T04:02:53.985Z,32.23
2019-02-12T04:03:30.697Z,32.32
2019-02-12T04:04:06.927Z,32.69
2019-02-12T04:04:43.112Z,32.16
2019-02-12T04:05:19.289Z,32.16
2019-02-12T04:05:55.259Z,32.14
2019-02-12T04:06:31.418Z,32.15
2019-02-12T04:07:07.565Z,32.01
2019-02-12T04:07:43.656Z,32.33
2019-02-12T04:08:19.760Z,32.59
2019-02-12T04:08:56.009Z,32.80
2019-02-12T04:09:32.165Z,32.76
2019-02-12T04:10:08.398Z,32.96
2019-02-12T04:10:44.453Z,32.79
2019-02-12T04:11:20.762Z,32.74
2019-02-12T04:11:57.019Z,32.82
2019-02-12T04:12:33.337Z,32.78
2019-02-12T04:13:09.586Z,32.75
2019-02-12T04:13:45.894Z,32.73
2019-02-12T04:14:22.170Z,32.53
2019-02-12T04:14:58.440Z,32.45
2019-02-12T04:15:34.723Z,32.48
2019-02-12T04:16:10.768Z,32.67
2019-02-12T04:16:47.018Z,32.45
2019-02-12T04:17:23.217Z,32.58
2019-02-12T04:17:59.288Z,32.62
2019-02-12T04:18:35.358Z,32.06
2019-02-12T04:19:11.502Z,31.77
2019-02-12T04:19:47.560Z,31.68
2019-02-12T04:20:23.636Z,31.44
2019-02-12T04:20:59.960Z,31.29
2019-02-12T04:21:36.080Z,31.19
2019-02-12T04:22:12.190Z,31.17
2019-02-12T04:22:48.259Z,31.11
2019-02-12T04:23:24.584Z,31.17
2019-02-12T04:24:00.839Z,31.34
2019-02-12T04:24:37.001Z,31.11
2019-02-12T04:25:13.129Z,30.95
2019-02-12T04:25:49.266Z,30.84
2019-02-12T04:26:25.387Z,30.66
2019-02-12T04:27:01.468Z,30.68
2019-02-12T04:27:37.833Z,30.62
2019-02-12T04:28:14.971Z,30.76
2019-02-12T04:28:50.994Z,30.89
2019-02-12T04:29:27.178Z,30.96
2019-02-12T04:30:03.411Z,30.96
2019-02-12T04:30:39.474Z,31.21
2019-02-12T04:31:15.770Z,30.91
2019-02-12T04:31:51.950Z,31.09
2019-02-12T04:32:28.149Z,30.98
2019-02-12T04:33:04.318Z,30.80
2019-02-12T04:33:40.507Z,30.88
2019-02-12T04:34:16.829Z,30.66
2019-02-12T04:34:52.906Z,30.53
2019-02-12T04:35:29.064Z,30.42
2019-02-12T04:36:05.424Z,30.16
2019-02-12T04:36:41.730Z,29.84
2019-02-12T04:37:17.882Z,29.89
2019-02-12T04:37:54.120Z,29.80
2019-02-12T04:38:30.225Z,29.61
2019-02-12T04:39:07.115Z,29.18
2019-02-12T04:39:43.337Z,28.79
2019-02-12T04:40:19.513Z,28.52
2019-02-12T04:40:55.692Z,28.50
2019-02-12T04:41:31.921Z,28.26
2019-02-12T04:42:08.106Z,28.25
2019-02-12T04:42:44.297Z,28.30
2019-02-12T04:43:20.458Z,28.39
2019-02-12T04:43:56.569Z,28.32
2019-02-12T04:44:32.951Z,28.35
2019-02-12T04:45:09.881Z,28.81
2019-02-12T04:45:46.002Z,29.30
2019-02-12T04:46:22.132Z,29.12
2019-02-12T04:46:58.493Z,28.64
2019-02-12T04:47:34.656Z,28.66
2019-02-12T04:48:10.842Z,28.78
2019-02-12T04:48:46.995Z,28.65
2019-02-12T04:49:23.106Z,28.79
2019-02-12T04:49:59.276Z,29.11
2019-02-12T04:50:35.570Z,29.25
2019-02-12T04:51:11.664Z,28.99
2019-02-12T04:51:47.738Z,28.81
2019-02-12T04:52:31.754Z,28.41
2019-02-12T04:53:02.028Z,27.90
2019-02-12T04:53:38.280Z,27.77
2019-02-12T04:54:14.441Z,27.62
2019-02-12T04:54:50.595Z,27.45
2019-02-12T04:55:26.819Z,27.24
2019-02-12T04:56:02.965Z,27.37
2019-02-12T04:56:39.257Z,27.65
2019-02-12T04:57:15.509Z,27.58
2019-02-12T04:57:51.744Z,27.56
2019-02-12T04:58:27.923Z,27.51
2019-02-12T04:59:04.071Z,27.48
2019-02-12T04:59:40.279Z,27.30
2019-02-12T05:00:17.120Z,27.26
2019-02-12T05:00:53.232Z,27.19
2019-02-12T05:01:29.392Z,27.30
2019-02-12T05:02:05.461Z,27.51
2019-02-12T05:02:41.617Z,27.00
2019-02-12T05:03:17.658Z,26.88
2019-02-12T05:03:53.766Z,26.33
2019-02-12T05:04:29.969Z,26.01
2019-02-12T05:05:06.371Z,25.96
2019-02-12T05:05:42.678Z,25.75
2019-02-12T05:06:18.797Z,25.88
2019-02-12T05:06:54.914Z,25.94
2019-02-12T05:07:30.951Z,26.03
2019-02-12T05:08:07.122Z,25.99
2019-02-12T05:09:13.628Z,26.16
2019-02-12T05:09:52.051Z,26.21
2019-02-12T05:10:29.689Z,25.98
2019-02-12T05:11:06.253Z,26.03
2019-02-12T05:11:43.400Z,26.06
2019-02-12T05:12:21.419Z,26.36
2019-02-12T05:12:57.769Z,27.21
2019-02-12T05:13:33.977Z,27.95
2019-02-12T05:14:09.921Z,28.30
2019-02-12T05:14:46.476Z,28.26
2019-02-12T05:15:22.863Z,28.43
2019-02-12T05:15:58.997Z,28.79
2019-02-12T05:16:35.259Z,29.07
2019-02-12T05:17:11.570Z,29.54
2019-02-12T05:17:47.761Z,29.65
2019-02-12T05:18:23.971Z,29.79
2019-02-12T05:19:00.307Z,29.82
2019-02-12T05:19:36.485Z,29.72
2019-02-12T05:20:14.061Z,29.82
2019-02-12T05:20:50.285Z,29.91
2019-02-12T05:21:26.438Z,29.86
2019-02-12T05:22:02.761Z,29.75
2019-02-12T05:22:43.498Z,29.55
2019-02-12T05:23:16.956Z,29.23
2019-02-12T05:23:53.120Z,29.18
2019-02-12T05:24:29.175Z,29.43
2019-02-12T05:25:05.418Z,29.60
2019-02-12T05:25:41.541Z,30.18
2019-02-12T05:26:17.712Z,30.56
2019-02-12T05:26:53.987Z,30.17
2019-02-12T05:27:30.307Z,29.81
2019-02-12T05:28:06.513Z,30.04
2019-02-12T05:28:42.592Z,30.38
2019-02-12T05:29:18.870Z,30.32
2019-02-12T05:29:55.117Z,30.21
2019-02-12T05:30:31.481Z,30.33
2019-02-12T05:31:07.584Z,30.65
2019-02-12T05:31:43.749Z,30.80
2019-02-12T05:32:19.869Z,30.62
2019-02-12T05:32:55.963Z,30.72
2019-02-12T05:33:32.077Z,30.85
2019-02-12T05:34:08.329Z,30.90
2019-02-12T05:34:44.386Z,31.37
2019-02-12T05:35:20.440Z,31.06
2019-02-12T05:35:56.566Z,31.10
2019-02-12T05:36:32.716Z,31.66
2019-02-12T05:37:08.941Z,31.72
2019-02-12T05:37:45.165Z,31.85
2019-02-12T05:38:21.360Z,31.47
2019-02-12T05:38:57.594Z,31.32
2019-02-12T05:39:33.724Z,31.34
2019-02-12T05:40:10.204Z,31.48
2019-02-12T05:40:46.476Z,31.71
2019-02-12T05:41:22.621Z,31.80
2019-02-12T05:41:59.006Z,31.86
2019-02-12T05:42:35.299Z,31.91
2019-02-12T05:43:11.489Z,31.85
2019-02-12T05:43:47.694Z,31.83
2019-02-12T05:44:24.013Z,31.62
2019-02-12T05:45:00.303Z,31.47
2019-02-12T05:45:36.671Z,31.51
2019-02-12T05:46:12.881Z,31.35
2019-02-12T05:46:48.984Z,31.31
2019-02-12T05:47:25.228Z,31.79
2019-02-12T05:48:01.377Z,31.65
2019-02-12T05:48:37.564Z,31.67
2019-02-12T05:49:13.679Z,31.71
2019-02-12T05:49:49.884Z,31.84
2019-02-12T05:50:26.062Z,31.51
2019-02-12T05:51:02.385Z,31.23
2019-02-12T05:51:38.689Z,31.13
2019-02-12T05:52:14.942Z,31.20
2019-02-12T05:52:54.336Z,30.80
2019-02-12T05:53:29.014Z,30.70
2019-02-12T05:54:05.335Z,30.71
2019-02-12T05:54:41.459Z,30.81
2019-02-12T05:55:17.681Z,31.31
2019-02-12T05:55:53.980Z,31.14
2019-02-12T05:56:30.131Z,30.95
2019-02-12T05:57:06.357Z,30.56
2019-02-12T05:57:42.500Z,30.19
2019-02-12T05:58:18.551Z,30.08
2019-02-12T05:58:54.849Z,29.95
2019-02-12T05:59:30.917Z,29.82
2019-02-12T06:00:08.932Z,29.75
2019-02-12T06:00:45.046Z,29.78
2019-02-12T06:01:21.111Z,29.83
2019-02-12T06:01:57.365Z,29.95
2019-02-12T06:02:33.588Z,29.95
2019-02-12T06:03:09.852Z,30.03
2019-02-12T06:03:46.093Z,30.28
2019-02-12T06:04:22.191Z,30.25
2019-02-12T06:04:58.211Z,30.13
2019-02-12T06:05:34.219Z,30.18
2019-02-12T06:06:10.404Z,30.26
2019-02-12T06:06:46.641Z,30.27
2019-02-12T06:07:22.797Z,30.30
2019-02-12T06:07:58.968Z,30.37
2019-02-12T06:08:35.232Z,30.47
2019-02-12T06:09:11.304Z,30.65
2019-02-12T06:09:47.435Z,30.90
2019-02-12T06:10:23.642Z,31.38
2019-02-12T06:10:59.919Z,30.98
2019-02-12T06:11:36.126Z,30.65
2019-02-12T06:12:12.305Z,31.30
2019-02-12T06:12:48.500Z,30.92
2019-02-12T06:13:24.683Z,30.95
2019-02-12T06:14:00.808Z,30.74
2019-02-12T06:14:36.996Z,30.66
2019-02-12T06:15:13.297Z,30.57
2019-02-12T06:15:49.535Z,30.39
2019-02-12T06:16:25.883Z,30.22
2019-02-12T06:17:01.954Z,30.28
2019-02-12T06:17:38.115Z,30.63
2019-02-12T06:18:14.308Z,30.65
2019-02-12T06:18:50.470Z,30.56
2019-02-12T06:19:26.723Z,30.61
2019-02-12T06:20:02.836Z,30.97
2019-02-12T06:20:39.128Z,30.84
2019-02-12T06:21:15.610Z,30.84
2019-02-12T06:21:51.871Z,30.81
2019-02-12T06:22:28.078Z,30.82
2019-02-12T06:23:04.417Z,30.88
2019-02-12T06:23:40.615Z,31.10
2019-02-12T06:24:16.813Z,31.36
2019-02-12T06:24:53.056Z,31.17
2019-02-12T06:25:29.318Z,30.53
2019-02-12T06:26:05.463Z,30.20
2019-02-12T06:26:41.724Z,30.25
2019-02-12T06:27:17.867Z,30.15
2019-02-12T06:27:54.167Z,29.66
2019-02-12T06:28:30.258Z,29.08
2019-02-12T06:29:06.490Z,29.21
2019-02-12T06:29:42.784Z,29.26
2019-02-12T06:30:18.911Z,29.51
2019-02-12T06:30:55.145Z,29.50
2019-02-12T06:31:31.352Z,29.31
2019-02-12T06:32:07.453Z,29.27
2019-02-12T06:32:43.680Z,29.39
2019-02-12T06:33:19.830Z,29.49
2019-02-12T06:33:56.135Z,29.84
2019-02-12T06:34:32.307Z,29.78
2019-02-12T06:35:08.833Z,29.78
2019-02-12T06:35:45.061Z,29.92
2019-02-12T06:36:21.209Z,30.18
2019-02-12T06:36:57.387Z,30.12
2019-02-12T06:37:33.600Z,30.05
2019-02-12T06:38:09.685Z,30.01
2019-02-12T06:38:45.850Z,30.03
2019-02-12T06:39:22.002Z,30.17
2019-02-12T06:39:58.170Z,30.24
2019-02-12T06:40:34.307Z,30.29
2019-02-12T06:41:10.615Z,30.30
2019-02-12T06:41:46.825Z,30.32
2019-02-12T06:42:23.134Z,30.16
2019-02-12T06:42:59.240Z,30.37
2019-02-12T06:43:35.493Z,29.85
2019-02-12T06:44:11.648Z,29.79
2019-02-12T06:44:47.783Z,29.68
2019-02-12T06:45:24.077Z,29.53
2019-02-12T06:46:00.378Z,29.74
2019-02-12T06:46:36.664Z,29.61
2019-02-12T06:47:12.909Z,29.52
2019-02-12T06:47:49.246Z,29.37
2019-02-12T06:48:25.534Z,29.33
2019-02-12T06:49:01.602Z,29.22
2019-02-12T06:49:37.786Z,29.34
2019-02-12T06:50:14.057Z,29.44
2019-02-12T06:50:50.279Z,29.31
2019-02-12T06:51:26.423Z,29.16
2019-02-12T06:52:02.552Z,29.11
2019-02-12T06:52:38.713Z,29.05
2019-02-12T06:53:14.850Z,29.12
2019-02-12T06:53:51.027Z,29.48
2019-02-12T06:54:27.281Z,29.10
2019-02-12T06:55:03.586Z,29.03
2019-02-12T06:55:39.900Z,28.71
2019-02-12T06:56:16.207Z,28.39
2019-02-12T06:56:52.344Z,28.25
2019-02-12T06:57:28.485Z,28.05
2019-02-12T06:58:04.630Z,27.60
2019-02-12T06:58:40.885Z,27.55
2019-02-12T06:59:17.055Z,27.27
2019-02-12T06:59:53.192Z,27.43
2019-02-12T07:00:29.345Z,27.50
2019-02-12T07:01:05.537Z,27.51
2019-02-12T07:01:41.763Z,27.63
2019-02-12T07:02:51.931Z,27.79
2019-02-12T07:03:38.381Z,28.15
2019-02-12T07:04:20.552Z,28.49
2019-02-12T07:04:56.662Z,28.74
2019-02-12T07:05:35.070Z,29.07
2019-02-12T07:06:17.490Z,29.06
2019-02-12T07:07:32.640Z,28.73
2019-02-12T07:08:40.340Z,28.27
2019-02-12T07:09:23.540Z,28.22
2019-02-12T07:10:03.234Z,28.36
2019-02-12T07:10:40.403Z,28.56
2019-02-12T07:11:47.412Z,28.81
2019-02-12T07:12:56.021Z,28.77
2019-02-12T07:14:04.292Z,28.83
2019-02-12T07:15:29.036Z,28.83
2019-02-12T07:16:16.154Z,28.86
2019-02-12T07:17:43.927Z,29.21
2019-02-12T07:18:44.732Z,29.10
2019-02-12T07:19:52.130Z,29.23
2019-02-12T07:20:49.875Z,29.73
2019-02-12T07:22:21.402Z,30.01
2019-02-12T07:23:21.713Z,29.97
2019-02-12T07:24:59.006Z,30.12
2019-02-12T07:26:19.400Z,30.33
2019-02-12T07:27:27.284Z,29.94
2019-02-12T07:28:33.990Z,29.67
2019-02-12T07:29:34.226Z,29.53
2019-02-12T07:30:59.307Z,29.73
2019-02-12T07:32:21.320Z,29.82
2019-02-12T07:33:52.517Z,29.84
2019-02-12T07:34:38.146Z,29.91
2019-02-12T07:35:49.339Z,29.79
2019-02-12T07:37:00.574Z,29.88
2019-02-12T07:38:37.251Z,29.97
2019-02-12T07:39:59.158Z,29.95
2019-02-12T07:41:19.596Z,29.64
2019-02-12T07:42:05.937Z,29.43
2019-02-12T07:43:05.877Z,28.53
2019-02-12T07:44:20.563Z,28.38
2019-02-12T07:45:45.718Z,28.36
2019-02-12T07:47:08.547Z,28.55
2019-02-12T07:48:10.525Z,28.90
2019-02-12T07:49:01.549Z,29.16
2019-02-12T07:50:13.044Z,29.06
2019-02-12T07:50:57.218Z,29.59
2019-02-12T07:51:53.954Z,29.53
2019-02-12T07:52:57.973Z,29.65
2019-02-12T07:53:54.001Z,30.01
2019-02-12T07:54:45.759Z,30.05
2019-02-12T07:55:48.408Z,29.92
2019-02-12T07:57:06.303Z,30.26
2019-02-12T07:58:25.934Z,30.22
2019-02-12T07:59:30.289Z,30.43
2019-02-12T08:00:17.914Z,30.26
2019-02-12T08:01:41.285Z,30.19
2019-02-12T08:02:52.893Z,29.98
2019-02-12T08:04:13.300Z,30.63
2019-02-12T08:05:44.062Z,30.62
2019-02-12T08:07:00.057Z,30.03
2019-02-12T08:08:22.388Z,29.99
2019-02-12T08:09:43.315Z,30.34
2019-02-12T08:10:57.981Z,30.79
2019-02-12T08:11:49.185Z,30.65
2019-02-12T08:12:56.206Z,30.65
2019-02-12T08:14:06.509Z,30.69
2019-02-12T08:15:05.701Z,31.90
2019-02-12T08:16:15.480Z,32.78
2019-02-12T08:17:20.529Z,34.23
2019-02-12T08:18:29.693Z,35.99
2019-02-12T08:19:29.595Z,36.83
2019-02-12T08:20:31.992Z,36.81
2019-02-12T08:22:02.167Z,37.37
2019-02-12T08:23:30.098Z,37.85
2019-02-12T08:24:34.599Z,38.09
2019-02-12T08:25:36.514Z,38.11
2019-02-12T08:26:41.943Z,38.44
2019-02-12T08:27:46.776Z,38.55